地図

経路データ

SID SEASON NUMBER BASIN SUBBASIN NAME ISO_TIME NATURE LAT LON WMO_WIND WMO_PRES WMO_AGENCY TRACK_TYPE DIST2LAND LANDFALL IFLAG USA_AGENCY USA_ATCF_ID USA_LAT USA_LON USA_RECORD USA_STATUS USA_WIND USA_PRES USA_SSHS USA_R34_NE USA_R34_SE USA_R34_SW USA_R34_NW USA_R50_NE USA_R50_SE USA_R50_SW USA_R50_NW USA_R64_NE USA_R64_SE USA_R64_SW USA_R64_NW USA_POCI USA_ROCI USA_RMW USA_EYE TOKYO_LAT TOKYO_LON TOKYO_GRADE TOKYO_WIND TOKYO_PRES TOKYO_R50_DIR TOKYO_R50_LONG TOKYO_R50_SHORT TOKYO_R30_DIR TOKYO_R30_LONG TOKYO_R30_SHORT TOKYO_LAND CMA_LAT CMA_LON CMA_CAT CMA_WIND CMA_PRES HKO_LAT HKO_LON HKO_CAT HKO_WIND HKO_PRES NEWDELHI_LAT NEWDELHI_LON NEWDELHI_GRADE NEWDELHI_WIND NEWDELHI_PRES NEWDELHI_CI NEWDELHI_DP NEWDELHI_POCI REUNION_LAT REUNION_LON REUNION_TYPE REUNION_WIND REUNION_PRES REUNION_TNUM REUNION_CI REUNION_RMW REUNION_R34_NE REUNION_R34_SE REUNION_R34_SW REUNION_R34_NW REUNION_R50_NE REUNION_R50_SE REUNION_R50_SW REUNION_R50_NW REUNION_R64_NE REUNION_R64_SE REUNION_R64_SW REUNION_R64_NW BOM_LAT BOM_LON BOM_TYPE BOM_WIND BOM_PRES BOM_TNUM BOM_CI BOM_RMW BOM_R34_NE BOM_R34_SE BOM_R34_SW BOM_R34_NW BOM_R50_NE BOM_R50_SE BOM_R50_SW BOM_R50_NW BOM_R64_NE BOM_R64_SE BOM_R64_SW BOM_R64_NW BOM_ROCI BOM_POCI BOM_EYE BOM_POS_METHOD BOM_PRES_METHOD NADI_LAT NADI_LON NADI_CAT NADI_WIND NADI_PRES WELLINGTON_LAT WELLINGTON_LON WELLINGTON_WIND WELLINGTON_PRES DS824_LAT DS824_LON DS824_STAGE DS824_WIND DS824_PRES TD9636_LAT TD9636_LON TD9636_STAGE TD9636_WIND TD9636_PRES TD9635_LAT TD9635_LON TD9635_WIND TD9635_PRES TD9635_ROCI NEUMANN_LAT NEUMANN_LON NEUMANN_CLASS NEUMANN_WIND NEUMANN_PRES MLC_LAT MLC_LON MLC_CLASS MLC_WIND MLC_PRES USA_GUST BOM_GUST BOM_GUST_PER REUNION_GUST REUNION_GUST_PER USA_SEAHGT USA_SEARAD_NE USA_SEARAD_SE USA_SEARAD_SW USA_SEARAD_NW STORM_SPEED STORM_DIR
2002289N18162 2002 80 WP MM NOT_NAMED 2002-10-16 00:00:00 TS 18.3000 161.600 main 2628 2604 O_____________ jtwc_wp WP272002 18.3000 161.600 TD 15 1006 -1 10 271
2002289N18162 2002 80 WP MM NOT_NAMED 2002-10-16 03:00:00 TS 18.3078 161.098 main 2604 2581 P_____________ WP272002 18.3078 161.098 TD 17 1007 -1 10 270
2002289N18162 2002 80 WP MM NOT_NAMED 2002-10-16 06:00:00 TS 18.3000 160.600 main 2581 2559 O_____________ jtwc_wp WP272002 18.3000 160.600 TD 20 1008 -1 1009 110 20 9 267
2002289N18162 2002 80 WP MM NOT_NAMED 2002-10-16 09:00:00 TS 18.2648 160.108 main 2559 2527 P_____________ WP272002 18.2648 160.108 TD 20 1006 -1 1008 110 20 10 264
2002289N18162 2002 80 WP MM NOT_NAMED 2002-10-16 12:00:00 TS 18.2000 159.600 main 2527 2497 O_____________ jtwc_wp WP272002 18.2000 159.600 TD 20 1004 -1 1007 110 20 10 261
2002289N18162 2002 80 WP MM NOT_NAMED 2002-10-16 15:00:00 TS 18.1149 159.058 main 2497 2463 P_____________ WP272002 18.1149 159.058 TD 20 1004 -1 1007 110 20 11 259
2002289N18162 2002 80 WP MM NOT_NAMED 2002-10-16 18:00:00 TS 18.0000 158.500 main 2463 2435 O_____________ jtwc_wp WP272002 18.0000 158.500 TD 20 1004 -1 1007 110 20 11 256
2002289N18162 2002 80 WP MM NOT_NAMED 2002-10-16 21:00:00 TS 17.8575 157.935 main 2431 2393 P_____________ WP272002 17.8575 157.935 TD 22 1003 -1 1005 115 20 11 254
2002289N18162 2002 80 WP MM NOT_NAMED 2002-10-17 00:00:00 TS 17.7000 157.400 main 2393 2370 O_____________ jtwc_wp WP272002 17.7000 157.400 TD 25 1002 -1 1004 120 20 10 252
2002289N18162 2002 80 WP MM NOT_NAMED 2002-10-17 03:00:00 TS 17.5498 156.935 main 2356 2333 P_____________ WP272002 17.5498 156.935 TD 25 1002 -1 1005 120 35 9 251
2002289N18162 2002 80 WP MM NOT_NAMED 2002-10-17 06:00:00 TS 17.4000 156.500 main 2333 2311 O_____________ jtwc_wp WP272002 17.4000 156.500 TD 25 1002 -1 1006 120 50 9 251
2002289N18162 2002 80 WP MM NOT_NAMED 2002-10-17 09:00:00 TS 17.2499 156.043 main 2298 2277 P_____________ WP272002 17.2499 156.043 TD 25 1002 -1 1006 120 50 9 251
2002289N18162 2002 80 WP MM NOT_NAMED 2002-10-17 12:00:00 TS 17.1000 155.600 main 2277 2256 O_____________ jtwc_wp WP272002 17.1000 155.600 TD 25 1002 -1 1006 120 50 9 250
2002289N18162 2002 80 WP MM NOT_NAMED 2002-10-17 15:00:00 TS 16.9499 155.193 main 2245 2225 P_____________ WP272002 16.9499 155.193 TD 25 1002 -1 1006 110 50 8 249
2002289N18162 2002 80 WP MM NOT_NAMED 2002-10-17 18:00:00 TS 16.8000 154.800 main 2225 2206 O_____________ jtwc_wp WP272002 16.8000 154.800 TD 25 1002 -1 1006 100 50 8 248
2002289N18162 2002 80 WP MM NOT_NAMED 2002-10-17 21:00:00 TS 16.6425 154.393 main 2195 2177 P_____________ WP272002 16.6425 154.393 TD 27 1001 -1 1006 100 50 8 249
2002289N18162 2002 80 WP MM NOT_NAMED 2002-10-18 00:00:00 TS 16.5000 154.000 main 2177 2161 O_____________ jtwc_wp WP272002 16.5000 154.000 TD 30 1000 -1 1006 100 50 8 250
2002289N18162 2002 80 WP MM NOT_NAMED 2002-10-18 03:00:00 TS 16.3849 153.635 main 2160 2144 P_____________ WP272002 16.3849 153.635 TD 30 1000 -1 1006 100 50 7 253
2002289N18162 2002 80 WP MM NOT_NAMED 2002-10-18 06:00:00 TS 16.3000 153.300 main 2144 2129 O_____________ jtwc_wp WP272002 16.3000 153.300 TD 30 1000 -1 1006 100 50 6 257
2002289N18162 2002 80 WP MM NOT_NAMED 2002-10-18 09:00:00 TS 16.2424 153.000 main 2129 2126 P_____________ WP272002 16.2424 153.000 TD 30 1000 -1 1006 100 50 6 260
2002289N18162 2002 80 WP MM NOT_NAMED 2002-10-18 12:00:00 TS 16.2000 152.700 main 2126 2111 O_____________ jtwc_wp WP272002 16.2000 152.700 TD 30 1000 -1 1006 100 50 6 259
2002289N18162 2002 80 WP MM NOT_NAMED 2002-10-18 15:00:00 TS 16.1272 152.402 main 2111 2100 P_____________ WP272002 16.1272 152.402 TD 30 1000 -1 1006 105 50 7 262
2002289N18162 2002 80 WP MM NOT_NAMED 2002-10-18 18:00:00 TS 16.1000 152.000 main 2100 2090 O_____________ jtwc_wp WP272002 16.1000 152.000 TD 30 1000 -1 1006 110 50 10 273
2002289N18162 2002 80 WP MM NOT_NAMED 2002-10-18 21:00:00 TS 16.1852 151.388 main 2096 2087 P_____________ WP272002 16.1852 151.388 TD 27 1001 -1 1006 110 50 13 279
2002289N18162 2002 80 WP MM NOT_NAMED 2002-10-19 00:00:00 TS 16.3000 150.700 main 2092 2084 O_____________ jtwc_wp WP272002 16.3000 150.700 TD 25 1002 -1 1006 110 50 13 278
2002289N18162 2002 80 WP MM NOT_NAMED 2002-10-19 03:00:00 TS 16.3573 150.092 main 2093 2085 P_____________ WP272002 16.3573 150.092 TD 25 1002 -1 12 275
2002289N18162 2002 80 WP MM NOT_NAMED 2002-10-19 06:00:00 TS 16.4000 149.500 main 2085 2078 O_____________ jtwc_wp WP272002 16.4000 149.500 TD 25 1002 -1 12 273
2002289N18162 2002 80 WP MM NOT_NAMED 2002-10-19 09:00:00 TS 16.4274 148.892 main 2078 2076 P_____________ WP272002 16.4274 148.892 TD 22 1003 -1 12 275
2002289N18162 2002 80 WP MM NOT_NAMED 2002-10-19 12:00:00 TS 16.5000 148.300 main 2085 2084 O_____________ jtwc_wp WP272002 16.5000 148.300 TD 20 1004 -1 11 283
2002289N18162 2002 80 WP MM NOT_NAMED 2002-10-19 15:00:00 TS 16.6773 147.743 main 2106 2106 P_____________ WP272002 16.6773 147.743 TD 20 1004 -1 11 291
2002289N18162 2002 80 WP MM NOT_NAMED 2002-10-19 18:00:00 TS 16.9000 147.200 main 2128 2096 O_____________ jtwc_wp WP272002 16.9000 147.200 TD 20 1004 -1 12 290
2002289N18162 2002 80 WP MM NOT_NAMED 2002-10-19 21:00:00 TS 17.0776 146.612 main 2096 2059 P_____________ WP272002 17.0776 146.612 TD 20 1004 -1 11 291
2002289N18162 2002 80 WP MM NOT_NAMED 2002-10-20 00:00:00 TS 17.3000 146.100 main 2059 2015 O_____________ jtwc_wp WP272002 17.3000 146.100 TD 20 1004 -1 10 300
2002289N18162 2002 80 WP MM NOT_NAMED 2002-10-20 03:00:00 TS 17.5974 145.688 main 2015 1966 P_____________ WP272002 17.5974 145.688 TD 17 1005 -1 9 321
2002289N18162 2002 80 WP MM NOT_NAMED 2002-10-20 06:00:00 TS 18.0000 145.500 main 1966 1915 O_____________ jtwc_wp WP272002 18.0000 145.500 TD 15 1006 -1 9 356
2002289N18162 2002 80 WP MM NOT_NAMED 2002-10-20 09:00:00 TS 18.5177 145.612 main 1915 1860 P_____________ WP272002 18.5177 145.612 TD 15 1006 -1 12 19
2002289N18162 2002 80 WP MM NOT_NAMED 2002-10-20 12:00:00 TS 19.1000 145.900 main 1860 O_____________ jtwc_wp WP272002 19.1000 145.900 TD 15 1006 -1 13 25

デジタル台風データ・検索

IBTrACS Databaseについて

本データベースは、米国NOAAが公開する1842年以降の世界の熱帯低気圧のベストトラックデータアーカイブInternational Best Track Archive for Climate Stewardship (IBTrACS)を、ウェブで閲覧しやすい形式に変換したものです。

最終更新日:2021-10-08